sensor_id;sensor_type;location;lat;lon;timestamp;pressure;altitude;pressure_sealevel;temperature;humidity
49979;BME280;35869;50.990;6.962;2022-09-09T00:01:36;100572.50;;;18.24;76.94
49979;BME280;35869;50.990;6.962;2022-09-09T00:12:27;100555.03;;;18.11;77.90
49979;BME280;35869;50.990;6.962;2022-09-09T00:18:13;100549.53;;;18.15;78.24
49979;BME280;35869;50.990;6.962;2022-09-09T00:23:25;100530.41;;;18.13;77.61
49979;BME280;35869;50.990;6.962;2022-09-09T00:28:28;100548.81;;;18.13;77.25
49979;BME280;35869;50.990;6.962;2022-09-09T00:33:30;100550.97;;;18.07;78.44
49979;BME280;35869;50.990;6.962;2022-09-09T00:38:37;100551.19;;;18.04;81.20
49979;BME280;35869;50.990;6.962;2022-09-09T00:43:40;100554.09;;;18.01;81.30
49979;BME280;35869;50.990;6.962;2022-09-09T00:48:52;100550.13;;;17.96;79.91
49979;BME280;35869;50.990;6.962;2022-09-09T01:04:34;100539.00;;;17.92;79.09
49979;BME280;35869;50.990;6.962;2022-09-09T01:09:50;100551.44;;;17.90;78.55
49979;BME280;35869;50.990;6.962;2022-09-09T01:15:00;100546.41;;;17.87;77.67
49979;BME280;35869;50.990;6.962;2022-09-09T01:30:42;100547.38;;;17.75;78.28
49979;BME280;35869;50.990;6.962;2022-09-09T01:40:45;100546.75;;;17.71;77.04
49979;BME280;35869;50.990;6.962;2022-09-09T01:45:46;100550.91;;;17.63;77.60
49979;BME280;35869;50.990;6.962;2022-09-09T01:50:47;100552.56;;;17.64;78.03
49979;BME280;35869;50.990;6.962;2022-09-09T02:01:16;100558.91;;;17.61;77.38
49979;BME280;35869;50.990;6.962;2022-09-09T02:06:30;100553.53;;;17.63;77.21
49979;BME280;35869;50.990;6.962;2022-09-09T02:11:30;100554.25;;;17.65;76.93
49979;BME280;35869;50.990;6.962;2022-09-09T02:16:38;100551.16;;;17.59;78.80
49979;BME280;35869;50.990;6.962;2022-09-09T02:21:42;100550.91;;;17.63;77.36
49979;BME280;35869;50.990;6.962;2022-09-09T02:26:46;100544.81;;;17.62;76.51
49979;BME280;35869;50.990;6.962;2022-09-09T02:31:49;100547.56;;;17.61;78.73
49979;BME280;35869;50.990;6.962;2022-09-09T02:36:50;100548.63;;;17.58;79.42
49979;BME280;35869;50.990;6.962;2022-09-09T02:41:52;100548.03;;;17.54;79.81
49979;BME280;35869;50.990;6.962;2022-09-09T02:52:15;100544.31;;;17.57;79.06
49979;BME280;35869;50.990;6.962;2022-09-09T02:57:35;100542.88;;;17.53;78.98
49979;BME280;35869;50.990;6.962;2022-09-09T03:02:36;100540.16;;;17.54;79.17
49979;BME280;35869;50.990;6.962;2022-09-09T03:07:37;100542.03;;;17.52;79.77
49979;BME280;35869;50.990;6.962;2022-09-09T03:12:37;100532.38;;;17.53;78.56
49979;BME280;35869;50.990;6.962;2022-09-09T03:17:37;100521.75;;;17.54;77.98
49979;BME280;35869;50.990;6.962;2022-09-09T03:22:37;100528.44;;;17.58;78.48
49979;BME280;35869;50.990;6.962;2022-09-09T03:27:38;100527.00;;;17.54;78.89
49979;BME280;35869;50.990;6.962;2022-09-09T03:32:38;100529.75;;;17.53;79.44
49979;BME280;35869;50.990;6.962;2022-09-09T03:37:38;100531.44;;;17.54;78.60
49979;BME280;35869;50.990;6.962;2022-09-09T03:42:39;100535.13;;;17.51;78.79
49979;BME280;35869;50.990;6.962;2022-09-09T03:47:39;100532.28;;;17.54;79.03
49979;BME280;35869;50.990;6.962;2022-09-09T03:52:40;100537.53;;;17.54;79.67
49979;BME280;35869;50.990;6.962;2022-09-09T03:57:41;100535.94;;;17.52;79.37
49979;BME280;35869;50.990;6.962;2022-09-09T04:02:41;100529.16;;;17.49;81.41
49979;BME280;35869;50.990;6.962;2022-09-09T04:07:41;100530.13;;;17.48;79.47
49979;BME280;35869;50.990;6.962;2022-09-09T04:12:41;100530.94;;;17.49;80.84
49979;BME280;35869;50.990;6.962;2022-09-09T04:17:42;100527.50;;;17.48;80.51
49979;BME280;35869;50.990;6.962;2022-09-09T04:22:42;100531.78;;;17.49;80.30
49979;BME280;35869;50.990;6.962;2022-09-09T04:27:42;100510.88;;;17.48;81.71
49979;BME280;35869;50.990;6.962;2022-09-09T04:32:42;100526.41;;;17.51;79.22
49979;BME280;35869;50.990;6.962;2022-09-09T04:37:42;100530.13;;;17.48;79.81
49979;BME280;35869;50.990;6.962;2022-09-09T04:42:43;100536.06;;;17.50;80.11
49979;BME280;35869;50.990;6.962;2022-09-09T04:47:43;100541.13;;;17.53;80.83
49979;BME280;35869;50.990;6.962;2022-09-09T04:52:43;100539.66;;;17.49;80.46
49979;BME280;35869;50.990;6.962;2022-09-09T04:57:43;100539.88;;;17.46;81.39
49979;BME280;35869;50.990;6.962;2022-09-09T05:02:44;100537.25;;;17.46;81.63
49979;BME280;35869;50.990;6.962;2022-09-09T05:07:44;100540.84;;;17.45;81.06
49979;BME280;35869;50.990;6.962;2022-09-09T05:12:52;100544.31;;;17.46;81.49
49979;BME280;35869;50.990;6.962;2022-09-09T05:17:56;100534.88;;;17.43;80.68
49979;BME280;35869;50.990;6.962;2022-09-09T05:22:57;100530.56;;;17.42;81.42
49979;BME280;35869;50.990;6.962;2022-09-09T05:27:58;100534.63;;;17.46;81.33
49979;BME280;35869;50.990;6.962;2022-09-09T05:32:58;100532.84;;;17.47;81.39
49979;BME280;35869;50.990;6.962;2022-09-09T05:38:01;100536.31;;;17.47;81.53
49979;BME280;35869;50.990;6.962;2022-09-09T05:43:01;100539.88;;;17.46;81.81
49979;BME280;35869;50.990;6.962;2022-09-09T05:48:01;100540.13;;;17.43;82.64
49979;BME280;35869;50.990;6.962;2022-09-09T05:53:01;100545.75;;;17.50;81.52
49979;BME280;35869;50.990;6.962;2022-09-09T05:58:02;100542.75;;;17.43;83.52
49979;BME280;35869;50.990;6.962;2022-09-09T06:03:02;100548.59;;;17.47;82.47
49979;BME280;35869;50.990;6.962;2022-09-09T06:08:03;100548.72;;;17.45;82.99
49979;BME280;35869;50.990;6.962;2022-09-09T06:13:03;100543.97;;;17.50;82.98
49979;BME280;35869;50.990;6.962;2022-09-09T06:18:03;100541.34;;;17.50;82.02
49979;BME280;35869;50.990;6.962;2022-09-09T06:23:03;100543.75;;;17.53;80.38
49979;BME280;35869;50.990;6.962;2022-09-09T06:28:04;100548.88;;;17.55;82.04
49979;BME280;35869;50.990;6.962;2022-09-09T06:33:04;100545.13;;;17.46;81.75
49979;BME280;35869;50.990;6.962;2022-09-09T06:38:04;100544.44;;;17.55;81.06
49979;BME280;35869;50.990;6.962;2022-09-09T06:43:04;100541.22;;;17.52;80.41
49979;BME280;35869;50.990;6.962;2022-09-09T06:48:04;100540.03;;;17.56;81.01
49979;BME280;35869;50.990;6.962;2022-09-09T06:53:05;100548.75;;;17.56;80.67
49979;BME280;35869;50.990;6.962;2022-09-09T06:58:08;100543.63;;;17.55;81.17
49979;BME280;35869;50.990;6.962;2022-09-09T07:03:10;100546.94;;;17.57;82.31
49979;BME280;35869;50.990;6.962;2022-09-09T07:08:10;100545.78;;;17.61;80.28
49979;BME280;35869;50.990;6.962;2022-09-09T07:13:11;100545.78;;;17.61;80.10
49979;BME280;35869;50.990;6.962;2022-09-09T07:18:11;100541.13;;;17.53;81.72
49979;BME280;35869;50.990;6.962;2022-09-09T07:23:11;100550.78;;;17.64;80.49
49979;BME280;35869;50.990;6.962;2022-09-09T07:28:11;100558.00;;;17.73;78.06
49979;BME280;35869;50.990;6.962;2022-09-09T07:33:11;100560.94;;;17.69;78.60
49979;BME280;35869;50.990;6.962;2022-09-09T07:38:12;100566.88;;;17.83;76.42
49979;BME280;35869;50.990;6.962;2022-09-09T07:43:12;100565.28;;;17.81;76.78
49979;BME280;35869;50.990;6.962;2022-09-09T07:48:12;100567.56;;;17.85;78.13
49979;BME280;35869;50.990;6.962;2022-09-09T07:53:12;100584.81;;;17.90;76.40
49979;BME280;35869;50.990;6.962;2022-09-09T07:58:13;100575.59;;;18.06;75.07
49979;BME280;35869;50.990;6.962;2022-09-09T08:03:13;100578.59;;;18.02;76.04
49979;BME280;35869;50.990;6.962;2022-09-09T08:08:13;100577.28;;;18.07;76.16
49979;BME280;35869;50.990;6.962;2022-09-09T08:13:13;100580.25;;;18.03;75.92
49979;BME280;35869;50.990;6.962;2022-09-09T08:18:13;100580.00;;;18.17;74.69
49979;BME280;35869;50.990;6.962;2022-09-09T08:23:14;100577.38;;;18.17;73.96
49979;BME280;35869;50.990;6.962;2022-09-09T08:28:14;100579.66;;;18.33;72.26
49979;BME280;35869;50.990;6.962;2022-09-09T08:33:14;100576.03;;;18.45;71.81
49979;BME280;35869;50.990;6.962;2022-09-09T08:38:14;100577.22;;;18.52;72.11
49979;BME280;35869;50.990;6.962;2022-09-09T08:43:15;100574.22;;;18.57;70.22
49979;BME280;35869;50.990;6.962;2022-09-09T08:48:24;100584.25;;;18.63;70.75
49979;BME280;35869;50.990;6.962;2022-09-09T08:53:38;100589.78;;;18.60;68.78
49979;BME280;35869;50.990;6.962;2022-09-09T08:58:47;100595.41;;;18.67;67.39
49979;BME280;35869;50.990;6.962;2022-09-09T09:04:02;100593.44;;;18.91;67.55
49979;BME280;35869;50.990;6.962;2022-09-09T09:14:35;100587.84;;;19.16;66.85
49979;BME280;35869;50.990;6.962;2022-09-09T09:19:39;100590.59;;;19.47;62.89
49979;BME280;35869;50.990;6.962;2022-09-09T09:29:54;100609.13;;;19.45;65.05
49979;BME280;35869;50.990;6.962;2022-09-09T09:34:57;100600.84;;;19.50;65.12
49979;BME280;35869;50.990;6.962;2022-09-09T09:40:14;100599.66;;;19.54;64.62
49979;BME280;35869;50.990;6.962;2022-09-09T09:50:26;100604.97;;;19.43;63.90
49979;BME280;35869;50.990;6.962;2022-09-09T09:55:28;100598.38;;;19.69;61.85
49979;BME280;35869;50.990;6.962;2022-09-09T10:00:30;100596.31;;;19.73;63.06
49979;BME280;35869;50.990;6.962;2022-09-09T10:05:31;100605.28;;;19.50;64.83
49979;BME280;35869;50.990;6.962;2022-09-09T10:21:32;100600.47;;;19.76;64.20
49979;BME280;35869;50.990;6.962;2022-09-09T10:26:55;100598.56;;;19.78;63.13
49979;BME280;35869;50.990;6.962;2022-09-09T10:42:38;100584.25;;;20.01;61.96
49979;BME280;35869;50.990;6.962;2022-09-09T10:58:30;100582.06;;;20.06;62.34
49979;BME280;35869;50.990;6.962;2022-09-09T11:03:32;100573.09;;;20.18;61.65
49979;BME280;35869;50.990;6.962;2022-09-09T11:08:38;100564.63;;;20.24;61.74
49979;BME280;35869;50.990;6.962;2022-09-09T11:13:53;100570.47;;;20.28;62.06
49979;BME280;35869;50.990;6.962;2022-09-09T11:19:00;100573.31;;;20.46;61.39
49979;BME280;35869;50.990;6.962;2022-09-09T11:24:06;100564.75;;;20.73;61.79
49979;BME280;35869;50.990;6.962;2022-09-09T11:29:21;100563.47;;;20.48;61.05
49979;BME280;35869;50.990;6.962;2022-09-09T11:45:20;100561.81;;;20.47;58.19
49979;BME280;35869;50.990;6.962;2022-09-09T11:55:25;100561.69;;;20.58;59.14
49979;BME280;35869;50.990;6.962;2022-09-09T12:00:37;100564.19;;;20.69;58.88
49979;BME280;35869;50.990;6.962;2022-09-09T12:05:42;100562.34;;;20.50;58.10
49979;BME280;35869;50.990;6.962;2022-09-09T12:10:54;100561.69;;;20.58;58.76
49979;BME280;35869;50.990;6.962;2022-09-09T12:15:59;100560.16;;;20.56;58.50
49979;BME280;35869;50.990;6.962;2022-09-09T12:21:11;100559.88;;;20.59;57.84
49979;BME280;35869;50.990;6.962;2022-09-09T12:31:22;100551.88;;;20.39;57.48
49979;BME280;35869;50.990;6.962;2022-09-09T12:36:29;100556.38;;;20.48;57.26
49979;BME280;35869;50.990;6.962;2022-09-09T12:41:30;100552.00;;;20.88;57.23
49979;BME280;35869;50.990;6.962;2022-09-09T12:46:43;100537.25;;;20.66;58.25
49979;BME280;35869;50.990;6.962;2022-09-09T12:51:45;100538.22;;;20.74;58.75
49979;BME280;35869;50.990;6.962;2022-09-09T12:56:46;100559.31;;;20.55;59.16
49979;BME280;35869;50.990;6.962;2022-09-09T13:01:58;100558.88;;;20.50;59.20
49979;BME280;35869;50.990;6.962;2022-09-09T13:07:07;100553.06;;;20.56;60.50
49979;BME280;35869;50.990;6.962;2022-09-09T13:12:13;100536.41;;;20.75;60.91
49979;BME280;35869;50.990;6.962;2022-09-09T13:17:25;100526.97;;;20.82;62.03
49979;BME280;35869;50.990;6.962;2022-09-09T13:22:35;100534.75;;;20.84;62.70
49979;BME280;35869;50.990;6.962;2022-09-09T13:27:40;100528.50;;;20.94;62.76
49979;BME280;35869;50.990;6.962;2022-09-09T13:32:41;100511.81;;;20.94;63.04
49979;BME280;35869;50.990;6.962;2022-09-09T13:37:41;100523.88;;;20.87;64.02
49979;BME280;35869;50.990;6.962;2022-09-09T13:42:41;100523.63;;;20.90;63.63
49979;BME280;35869;50.990;6.962;2022-09-09T13:47:42;100514.16;;;20.97;63.69
49979;BME280;35869;50.990;6.962;2022-09-09T13:52:42;100510.13;;;20.93;62.44
49979;BME280;35869;50.990;6.962;2022-09-09T14:02:54;100499.28;;;20.96;61.40
49979;BME280;35869;50.990;6.962;2022-09-09T14:07:55;100495.63;;;21.16;61.72
49979;BME280;35869;50.990;6.962;2022-09-09T14:12:55;100485.94;;;20.97;61.45
49979;BME280;35869;50.990;6.962;2022-09-09T14:17:56;100496.94;;;20.83;60.09
49979;BME280;35869;50.990;6.962;2022-09-09T14:22:56;100509.16;;;20.74;62.39
49979;BME280;35869;50.990;6.962;2022-09-09T14:27:56;100538.63;;;20.60;69.87
49979;BME280;35869;50.990;6.962;2022-09-09T14:32:56;100535.56;;;20.55;70.91
49979;BME280;35869;50.990;6.962;2022-09-09T14:37:56;100549.81;;;20.43;73.51
49979;BME280;35869;50.990;6.962;2022-09-09T14:42:57;100549.88;;;20.12;74.75
49979;BME280;35869;50.990;6.962;2022-09-09T14:47:57;100542.22;;;19.79;76.01
49979;BME280;35869;50.990;6.962;2022-09-09T14:52:57;100543.97;;;19.68;75.59
49979;BME280;35869;50.990;6.962;2022-09-09T14:57:57;100538.72;;;19.57;76.16
49979;BME280;35869;50.990;6.962;2022-09-09T15:02:58;100545.50;;;19.50;76.93
49979;BME280;35869;50.990;6.962;2022-09-09T15:07:58;100545.69;;;19.37;79.19
49979;BME280;35869;50.990;6.962;2022-09-09T15:12:58;100544.03;;;19.36;78.91
49979;BME280;35869;50.990;6.962;2022-09-09T15:17:58;100535.53;;;19.33;79.89
49979;BME280;35869;50.990;6.962;2022-09-09T15:22:59;100553.53;;;19.28;79.53
49979;BME280;35869;50.990;6.962;2022-09-09T15:27:59;100549.94;;;19.29;80.52
49979;BME280;35869;50.990;6.962;2022-09-09T15:32:59;100549.69;;;19.32;81.89
49979;BME280;35869;50.990;6.962;2022-09-09T15:38:02;100543.19;;;19.15;81.70
49979;BME280;35869;50.990;6.962;2022-09-09T15:43:02;100537.25;;;19.23;81.19
49979;BME280;35869;50.990;6.962;2022-09-09T15:48:03;100530.59;;;19.18;82.55
49979;BME280;35869;50.990;6.962;2022-09-09T15:53:03;100550.84;;;19.18;83.08
49979;BME280;35869;50.990;6.962;2022-09-09T15:58:03;100543.78;;;19.18;80.61
49979;BME280;35869;50.990;6.962;2022-09-09T16:03:04;100556.63;;;19.12;81.80
49979;BME280;35869;50.990;6.962;2022-09-09T16:08:04;100564.63;;;19.10;82.48
49979;BME280;35869;50.990;6.962;2022-09-09T16:13:04;100566.53;;;19.20;81.77
49979;BME280;35869;50.990;6.962;2022-09-09T16:18:04;100575.38;;;19.18;79.46
49979;BME280;35869;50.990;6.962;2022-09-09T16:23:05;100576.72;;;19.13;82.75
49979;BME280;35869;50.990;6.962;2022-09-09T16:28:05;100579.13;;;19.05;80.14
49979;BME280;35869;50.990;6.962;2022-09-09T16:33:05;100576.41;;;19.06;81.60
49979;BME280;35869;50.990;6.962;2022-09-09T16:38:06;100579.06;;;18.95;83.42
49979;BME280;35869;50.990;6.962;2022-09-09T16:43:07;100577.97;;;18.98;79.80
49979;BME280;35869;50.990;6.962;2022-09-09T16:48:07;100580.16;;;18.92;82.68
49979;BME280;35869;50.990;6.962;2022-09-09T16:53:08;100574.19;;;18.90;80.69
49979;BME280;35869;50.990;6.962;2022-09-09T16:58:10;100579.81;;;18.86;81.91
49979;BME280;35869;50.990;6.962;2022-09-09T17:03:13;100586.28;;;18.82;83.14
49979;BME280;35869;50.990;6.962;2022-09-09T17:08:14;100590.34;;;18.86;79.62
49979;BME280;35869;50.990;6.962;2022-09-09T17:13:14;100598.88;;;18.78;80.34
49979;BME280;35869;50.990;6.962;2022-09-09T17:18:14;100594.66;;;18.76;82.24
49979;BME280;35869;50.990;6.962;2022-09-09T17:23:15;100618.16;;;18.68;82.24
49979;BME280;35869;50.990;6.962;2022-09-09T17:28:15;100616.38;;;18.68;81.49
49979;BME280;35869;50.990;6.962;2022-09-09T17:33:15;100609.78;;;18.74;85.16
49979;BME280;35869;50.990;6.962;2022-09-09T17:38:15;100613.34;;;18.61;82.28
49979;BME280;35869;50.990;6.962;2022-09-09T17:43:16;100617.44;;;18.65;83.45
49979;BME280;35869;50.990;6.962;2022-09-09T17:48:16;100625.31;;;18.65;84.56
49979;BME280;35869;50.990;6.962;2022-09-09T17:53:16;100631.91;;;18.49;85.14
49979;BME280;35869;50.990;6.962;2022-09-09T17:58:16;100632.41;;;18.54;80.98
49979;BME280;35869;50.990;6.962;2022-09-09T18:03:17;100639.47;;;18.53;84.16
49979;BME280;35869;50.990;6.962;2022-09-09T18:08:17;100647.84;;;18.36;83.51
49979;BME280;35869;50.990;6.962;2022-09-09T18:13:17;100650.69;;;18.33;85.61
49979;BME280;35869;50.990;6.962;2022-09-09T18:18:17;100661.34;;;18.31;81.76
49979;BME280;35869;50.990;6.962;2022-09-09T18:23:17;100661.00;;;18.36;83.52
49979;BME280;35869;50.990;6.962;2022-09-09T18:28:18;100659.78;;;18.29;84.17
49979;BME280;35869;50.990;6.962;2022-09-09T18:33:19;100664.66;;;18.22;83.22
49979;BME280;35869;50.990;6.962;2022-09-09T18:38:19;100662.75;;;18.02;84.80
49979;BME280;35869;50.990;6.962;2022-09-09T18:43:19;100649.84;;;18.21;84.45
49979;BME280;35869;50.990;6.962;2022-09-09T18:48:20;100658.56;;;18.10;85.01
49979;BME280;35869;50.990;6.962;2022-09-09T18:53:20;100660.22;;;18.11;84.55
49979;BME280;35869;50.990;6.962;2022-09-09T18:58:20;100666.69;;;18.07;85.73
49979;BME280;35869;50.990;6.962;2022-09-09T19:03:21;100669.47;;;18.06;86.19
49979;BME280;35869;50.990;6.962;2022-09-09T19:08:21;100673.13;;;17.92;84.36
49979;BME280;35869;50.990;6.962;2022-09-09T19:13:22;100669.91;;;18.00;84.93
49979;BME280;35869;50.990;6.962;2022-09-09T19:18:22;100667.38;;;17.87;85.27
49979;BME280;35869;50.990;6.962;2022-09-09T19:23:22;100679.81;;;17.85;86.46
49979;BME280;35869;50.990;6.962;2022-09-09T19:28:22;100679.56;;;17.77;86.10
49979;BME280;35869;50.990;6.962;2022-09-09T19:33:23;100683.84;;;17.78;86.38
49979;BME280;35869;50.990;6.962;2022-09-09T19:38:23;100691.66;;;17.67;86.51
49979;BME280;35869;50.990;6.962;2022-09-09T19:43:23;100696.41;;;17.62;88.98
49979;BME280;35869;50.990;6.962;2022-09-09T19:48:24;100700.34;;;17.56;89.36
49979;BME280;35869;50.990;6.962;2022-09-09T19:53:24;100714.78;;;17.50;87.89
49979;BME280;35869;50.990;6.962;2022-09-09T19:58:25;100716.88;;;17.45;87.47
49979;BME280;35869;50.990;6.962;2022-09-09T20:03:25;100724.63;;;17.36;85.95
49979;BME280;35869;50.990;6.962;2022-09-09T20:08:25;100726.38;;;17.35;85.26
49979;BME280;35869;50.990;6.962;2022-09-09T20:13:30;100727.06;;;17.26;86.38
49979;BME280;35869;50.990;6.962;2022-09-09T20:18:33;100738.22;;;17.17;87.03
49979;BME280;35869;50.990;6.962;2022-09-09T20:23:34;100732.00;;;17.18;85.68
49979;BME280;35869;50.990;6.962;2022-09-09T20:28:35;100733.91;;;17.16;87.89
49979;BME280;35869;50.990;6.962;2022-09-09T20:33:36;100738.88;;;17.08;87.11
49979;BME280;35869;50.990;6.962;2022-09-09T20:38:48;100740.31;;;17.12;86.66
49979;BME280;35869;50.990;6.962;2022-09-09T20:43:54;100747.06;;;17.16;86.50
49979;BME280;35869;50.990;6.962;2022-09-09T20:48:55;100750.63;;;17.15;87.10
49979;BME280;35869;50.990;6.962;2022-09-09T20:53:59;100753.47;;;17.12;85.68
49979;BME280;35869;50.990;6.962;2022-09-09T20:59:00;100747.28;;;17.13;84.37
49979;BME280;35869;50.990;6.962;2022-09-09T21:04:00;100738.06;;;17.07;86.18
49979;BME280;35869;50.990;6.962;2022-09-09T21:09:01;100737.22;;;17.07;85.86
49979;BME280;35869;50.990;6.962;2022-09-09T21:14:02;100736.47;;;17.04;85.02
49979;BME280;35869;50.990;6.962;2022-09-09T21:19:02;100733.97;;;17.03;84.88
49979;BME280;35869;50.990;6.962;2022-09-09T21:24:02;100738.25;;;17.04;85.51
49979;BME280;35869;50.990;6.962;2022-09-09T21:29:03;100733.84;;;17.04;86.62
49979;BME280;35869;50.990;6.962;2022-09-09T21:34:03;100737.41;;;17.03;85.58
49979;BME280;35869;50.990;6.962;2022-09-09T21:39:03;100735.94;;;16.99;86.28
49979;BME280;35869;50.990;6.962;2022-09-09T21:44:03;100730.09;;;16.96;86.04
49979;BME280;35869;50.990;6.962;2022-09-09T21:49:04;100729.25;;;16.95;85.62
49979;BME280;35869;50.990;6.962;2022-09-09T21:54:04;100730.28;;;16.93;85.51
49979;BME280;35869;50.990;6.962;2022-09-09T21:59:04;100739.97;;;16.92;85.73
49979;BME280;35869;50.990;6.962;2022-09-09T22:04:04;100736.50;;;16.92;84.80
49979;BME280;35869;50.990;6.962;2022-09-09T22:09:05;100740.41;;;16.86;86.89
49979;BME280;35869;50.990;6.962;2022-09-09T22:14:05;100735.97;;;16.87;86.66
49979;BME280;35869;50.990;6.962;2022-09-09T22:19:05;100746.38;;;16.88;87.61
49979;BME280;35869;50.990;6.962;2022-09-09T22:24:05;100736.81;;;16.87;85.99
49979;BME280;35869;50.990;6.962;2022-09-09T22:29:06;100735.88;;;16.88;86.49
49979;BME280;35869;50.990;6.962;2022-09-09T22:34:06;100737.78;;;16.86;86.37
49979;BME280;35869;50.990;6.962;2022-09-09T22:39:06;100732.94;;;16.80;87.54
49979;BME280;35869;50.990;6.962;2022-09-09T22:44:07;100730.56;;;16.77;86.36
49979;BME280;35869;50.990;6.962;2022-09-09T22:49:08;100737.47;;;16.78;85.87
49979;BME280;35869;50.990;6.962;2022-09-09T22:54:08;100741.38;;;16.72;86.23
49979;BME280;35869;50.990;6.962;2022-09-09T22:59:09;100746.63;;;16.72;85.84
49979;BME280;35869;50.990;6.962;2022-09-09T23:04:10;100746.06;;;16.67;86.35
49979;BME280;35869;50.990;6.962;2022-09-09T23:09:11;100746.38;;;16.63;86.87
49979;BME280;35869;50.990;6.962;2022-09-09T23:14:12;100749.41;;;16.57;86.91
49979;BME280;35869;50.990;6.962;2022-09-09T23:19:13;100741.34;;;16.60;88.05
49979;BME280;35869;50.990;6.962;2022-09-09T23:24:15;100747.75;;;16.56;87.69
49979;BME280;35869;50.990;6.962;2022-09-09T23:29:16;100744.28;;;16.55;87.85
49979;BME280;35869;50.990;6.962;2022-09-09T23:34:16;100750.25;;;16.57;86.29
49979;BME280;35869;50.990;6.962;2022-09-09T23:39:16;100751.41;;;16.53;87.15
49979;BME280;35869;50.990;6.962;2022-09-09T23:44:17;100747.75;;;16.56;86.40
49979;BME280;35869;50.990;6.962;2022-09-09T23:49:17;100741.66;;;16.55;85.71
49979;BME280;35869;50.990;6.962;2022-09-09T23:54:17;100740.00;;;16.54;85.50
49979;BME280;35869;50.990;6.962;2022-09-09T23:59:17;100738.41;;;16.51;85.32
